createdAt,value
2018-06-18T00:00:45.520Z,101904.02
2018-06-18T00:03:14.005Z,101893.84
2018-06-18T00:05:42.488Z,101893.41
2018-06-18T00:08:10.928Z,101886.73
2018-06-18T00:10:39.357Z,101880.98
2018-06-18T00:13:07.779Z,101878.30
2018-06-18T00:15:36.185Z,101885.82
2018-06-18T00:18:04.997Z,101886.72
2018-06-18T00:20:33.492Z,101891.19
2018-06-18T00:23:01.995Z,101892.95
2018-06-18T00:25:30.442Z,101884.55
2018-06-18T00:27:58.925Z,101889.42
2018-06-18T00:30:27.447Z,101890.72
2018-06-18T00:32:55.903Z,101884.53
2018-06-18T00:35:24.375Z,101882.77
2018-06-18T00:37:52.865Z,101876.12
2018-06-18T00:40:21.279Z,101877.43
2018-06-18T00:42:49.778Z,101881.42
2018-06-18T00:45:18.612Z,101869.00
2018-06-18T00:47:47.088Z,101867.20
2018-06-18T00:50:15.578Z,101861.89
2018-06-18T00:52:44.161Z,101857.00
2018-06-18T00:55:22.573Z,101861.87
2018-06-18T00:58:27.623Z,101867.14
2018-06-18T01:00:56.076Z,101865.77
2018-06-18T01:03:24.582Z,101864.47
2018-06-18T01:05:53.189Z,101871.11
2018-06-18T01:08:21.616Z,101872.42
2018-06-18T01:10:50.116Z,101864.90
2018-06-18T01:13:18.664Z,101860.04
2018-06-18T01:15:47.260Z,101857.36
2018-06-18T01:18:15.751Z,101860.91
2018-06-18T01:20:44.167Z,101854.27
2018-06-18T01:23:24.210Z,101860.94
2018-06-18T01:25:52.666Z,101861.34
2018-06-18T01:28:21.200Z,101865.34
2018-06-18T01:30:49.624Z,101863.13
2018-06-18T01:33:18.122Z,101862.28
2018-06-18T01:35:46.695Z,101860.06
2018-06-18T01:38:15.193Z,101853.41
2018-06-18T01:40:43.662Z,101853.38
2018-06-18T01:43:12.148Z,101858.25
2018-06-18T01:45:40.693Z,101856.91
2018-06-18T01:48:09.211Z,101859.98
2018-06-18T01:50:37.754Z,101857.30
2018-06-18T01:53:06.601Z,101854.61
2018-06-18T01:56:01.822Z,101849.68
2018-06-18T01:58:30.269Z,101844.32
2018-06-18T02:00:58.763Z,101840.35
2018-06-18T02:03:36.046Z,101847.88
2018-06-18T02:06:04.526Z,101847.39
2018-06-18T02:08:33.008Z,101844.69
2018-06-18T02:11:01.483Z,101843.78
2018-06-18T02:13:29.933Z,101840.20
2018-06-18T02:15:58.517Z,101838.89
2018-06-18T02:18:26.944Z,101834.43
2018-06-18T02:20:55.672Z,101836.63
2018-06-18T02:23:24.222Z,101833.95
2018-06-18T02:25:52.682Z,101833.50
2018-06-18T02:28:26.412Z,101833.52
2018-06-18T02:31:00.169Z,101829.48
2018-06-18T02:33:34.034Z,101831.27
2018-06-18T02:36:07.954Z,101830.36
2018-06-18T02:38:41.809Z,101836.55
2018-06-18T02:41:10.336Z,101830.79
2018-06-18T02:43:38.786Z,101837.00
2018-06-18T02:46:07.342Z,101840.11
2018-06-18T02:48:35.870Z,101845.41
2018-06-18T02:51:09.260Z,101838.31
2018-06-18T02:53:37.754Z,101838.33
2018-06-18T02:56:07.246Z,101842.75
2018-06-18T02:58:35.738Z,101839.66
2018-06-18T03:01:04.204Z,101839.22
2018-06-18T03:03:33.905Z,101840.55
2018-06-18T03:06:02.413Z,101841.42
2018-06-18T03:08:30.863Z,101847.22
2018-06-18T03:10:59.306Z,101851.20
2018-06-18T03:13:27.861Z,101851.63
2018-06-18T03:15:56.324Z,101855.12
2018-06-18T03:18:29.996Z,101856.89
2018-06-18T03:21:03.801Z,101859.09
2018-06-18T03:23:37.629Z,101872.84
2018-06-18T03:26:11.284Z,101874.63
2018-06-18T03:28:45.169Z,101873.30
2018-06-18T03:31:13.604Z,101867.52
2018-06-18T03:33:42.107Z,101881.27
2018-06-18T03:36:10.599Z,101872.42
2018-06-18T03:38:39.137Z,101881.31
2018-06-18T03:41:08.153Z,101876.45
2018-06-18T03:43:40.245Z,101885.76
2018-06-18T03:46:08.737Z,101886.61
2018-06-18T03:48:37.308Z,101885.66
2018-06-18T03:51:05.845Z,101884.23
2018-06-18T03:53:34.480Z,101893.00
2018-06-18T03:56:02.984Z,101888.13
2018-06-18T03:58:31.535Z,101890.80
2018-06-18T04:01:16.652Z,101876.23
2018-06-18T04:03:51.032Z,101878.97
2018-06-18T04:06:24.909Z,101878.61
2018-06-18T04:08:58.733Z,101878.66
2018-06-18T04:11:32.763Z,101876.91
2018-06-18T04:14:01.680Z,101876.52
2018-06-18T04:16:30.253Z,101877.05
2018-06-18T04:18:58.731Z,101879.34
2018-06-18T04:21:27.201Z,101876.84
2018-06-18T04:23:55.689Z,101874.77
2018-06-18T04:26:24.217Z,101873.14
2018-06-18T04:28:52.748Z,101871.94
2018-06-18T04:31:21.238Z,101866.67
2018-06-18T04:34:34.312Z,101873.80
2018-06-18T04:37:02.741Z,101874.67
2018-06-18T04:39:31.222Z,101872.47
2018-06-18T04:42:05.099Z,101881.36
2018-06-18T04:44:38.954Z,101874.33
2018-06-18T04:47:12.676Z,101876.98
2018-06-18T04:49:46.532Z,101869.00
2018-06-18T04:52:15.096Z,101870.41
2018-06-18T04:54:43.605Z,101866.88
2018-06-18T04:57:12.122Z,101862.89
2018-06-18T04:59:45.715Z,101863.79
2018-06-18T05:02:14.215Z,101864.21
2018-06-18T05:04:42.687Z,101865.56
2018-06-18T05:07:11.169Z,101862.02
2018-06-18T05:09:53.949Z,101865.14
2018-06-18T05:12:22.552Z,101862.52
2018-06-18T05:14:51.484Z,101866.16
2018-06-18T05:17:20.021Z,101867.14
2018-06-18T05:19:48.508Z,101857.47
2018-06-18T05:22:19.544Z,101857.53
2018-06-18T05:24:49.357Z,101852.23
2018-06-18T05:27:18.047Z,101854.05
2018-06-18T05:29:46.938Z,101852.78
2018-06-18T05:32:15.466Z,101856.34
2018-06-18T05:34:44.013Z,101855.95
2018-06-18T05:37:15.782Z,101859.09
2018-06-18T05:39:44.231Z,101860.98
2018-06-18T05:42:12.749Z,101857.96
2018-06-18T05:44:41.305Z,101864.22
2018-06-18T05:47:09.772Z,101862.48
2018-06-18T05:49:38.282Z,101857.17
2018-06-18T05:52:06.896Z,101864.27
2018-06-18T05:54:35.426Z,101862.96
2018-06-18T05:57:03.967Z,101865.23
2018-06-18T05:59:32.389Z,101865.81
2018-06-18T06:02:00.889Z,101861.06
2018-06-18T06:04:29.376Z,101860.66
2018-06-18T06:06:57.861Z,101852.69
2018-06-18T06:09:26.372Z,101857.14
2018-06-18T06:11:54.844Z,101857.61
2018-06-18T06:14:23.262Z,101850.92
2018-06-18T06:16:51.757Z,101856.27
2018-06-18T06:19:20.309Z,101862.02
2018-06-18T06:21:48.831Z,101865.59
2018-06-18T06:24:17.315Z,101858.89
2018-06-18T06:26:45.773Z,101860.23
2018-06-18T06:29:14.262Z,101860.20
2018-06-18T06:31:42.756Z,101859.31
2018-06-18T06:34:11.320Z,101859.33
2018-06-18T06:36:40.251Z,101858.44
2018-06-18T06:39:10.468Z,101862.92
2018-06-18T06:41:40.074Z,101858.97
2018-06-18T06:44:08.550Z,101860.78
2018-06-18T06:46:36.985Z,101864.81
2018-06-18T06:49:05.521Z,101867.48
2018-06-18T06:51:34.098Z,101873.73
2018-06-18T06:54:02.580Z,101876.91
2018-06-18T06:56:31.059Z,101877.78
2018-06-18T06:58:59.543Z,101883.09
2018-06-18T07:01:28.003Z,101877.80
2018-06-18T07:03:56.405Z,101882.73
2018-06-18T07:06:24.884Z,101887.72
2018-06-18T07:08:53.482Z,101882.41
2018-06-18T07:11:22.020Z,101892.22
2018-06-18T07:13:50.631Z,101886.00
2018-06-18T07:16:19.075Z,101882.88
2018-06-18T07:18:47.712Z,101888.24
2018-06-18T07:21:16.173Z,101886.49
2018-06-18T07:23:44.610Z,101880.25
2018-06-18T07:26:13.157Z,101891.83
2018-06-18T07:28:41.644Z,101897.19
2018-06-18T07:31:10.145Z,101894.52
2018-06-18T07:33:38.582Z,101890.97
2018-06-18T07:36:07.026Z,101891.42
2018-06-18T07:38:35.613Z,101891.01
2018-06-18T07:41:04.025Z,101891.90
2018-06-18T07:43:32.551Z,101896.36
2018-06-18T07:46:01.046Z,101900.78
2018-06-18T07:48:29.474Z,101895.46
2018-06-18T07:50:57.958Z,101892.34
2018-06-18T07:53:26.400Z,101886.11
2018-06-18T07:55:55.067Z,101887.44
2018-06-18T07:58:23.532Z,101891.90
2018-06-18T08:00:51.994Z,101896.77
2018-06-18T08:03:24.274Z,101904.78
2018-06-18T08:05:52.675Z,101905.66
2018-06-18T08:08:21.119Z,101912.33
2018-06-18T08:10:49.537Z,101909.19
2018-06-18T08:13:17.951Z,101906.52
2018-06-18T08:15:46.348Z,101907.40
2018-06-18T08:18:14.784Z,101909.19
2018-06-18T08:20:43.198Z,101908.78
2018-06-18T08:23:26.717Z,101907.45
2018-06-18T08:25:55.260Z,101910.17
2018-06-18T08:28:23.713Z,101902.13
2018-06-18T08:30:52.221Z,101905.25
2018-06-18T08:33:20.801Z,101898.08
2018-06-18T08:35:49.307Z,101905.64
2018-06-18T08:38:17.741Z,101887.79
2018-06-18T08:40:46.244Z,101895.39
2018-06-18T08:43:14.728Z,101893.15
2018-06-18T08:45:43.145Z,101895.36
2018-06-18T08:48:14.512Z,101891.80
2018-06-18T08:50:48.127Z,101901.20
2018-06-18T08:53:21.931Z,101901.70
2018-06-18T08:55:55.734Z,101902.58
2018-06-18T08:58:29.534Z,101901.23
2018-06-18T09:01:03.140Z,101909.70
2018-06-18T09:03:35.793Z,101903.04
2018-06-18T09:06:04.342Z,101904.37
2018-06-18T09:08:39.955Z,101903.47
2018-06-18T09:11:08.489Z,101907.02
2018-06-18T09:13:37.268Z,101901.60
2018-06-18T09:16:05.958Z,101907.87
2018-06-18T09:18:34.420Z,101901.63
2018-06-18T09:21:02.908Z,101901.59
2018-06-18T09:23:31.386Z,101897.13
2018-06-18T09:26:00.618Z,101893.96
2018-06-18T09:28:30.409Z,101893.86
2018-06-18T09:30:59.121Z,101885.72
2018-06-18T09:33:27.597Z,101887.92
2018-06-18T09:35:57.019Z,101888.75
2018-06-18T09:38:25.550Z,101885.56
2018-06-18T09:40:53.967Z,101885.98
2018-06-18T09:43:22.514Z,101895.34
2018-06-18T09:45:51.056Z,101883.57
2018-06-18T09:48:19.568Z,101885.66
2018-06-18T09:50:53.378Z,101887.00
2018-06-18T09:53:27.416Z,101886.28
2018-06-18T09:56:01.271Z,101879.33
2018-06-18T09:58:34.970Z,101886.51
2018-06-18T10:01:14.073Z,101889.70
2018-06-18T10:03:42.626Z,101889.75
2018-06-18T10:06:18.784Z,101893.36
2018-06-18T10:08:47.403Z,101891.11
2018-06-18T10:11:15.767Z,101906.25
2018-06-18T10:13:44.337Z,101896.84
2018-06-18T10:16:13.093Z,101905.71
2018-06-18T10:18:41.542Z,101901.66
2018-06-18T10:21:10.006Z,101906.57
2018-06-18T10:23:38.564Z,101896.61
2018-06-18T10:26:07.094Z,101895.62
2018-06-18T10:28:36.756Z,101902.28
2018-06-18T10:31:05.254Z,101902.86
2018-06-18T10:33:39.013Z,101905.69
2018-06-18T10:36:12.822Z,101909.28
2018-06-18T10:38:46.629Z,101910.60
2018-06-18T10:41:20.569Z,101911.50
2018-06-18T10:43:49.037Z,101925.37
2018-06-18T10:46:17.775Z,101916.52
2018-06-18T10:48:47.857Z,101919.70
2018-06-18T10:51:16.455Z,101915.69
2018-06-18T10:53:45.074Z,101916.47
2018-06-18T10:56:13.517Z,101917.77
2018-06-18T10:58:41.978Z,101914.65
2018-06-18T11:01:13.538Z,101926.41
2018-06-18T11:03:42.123Z,101917.56
2018-06-18T11:06:16.008Z,101930.53
2018-06-18T11:08:44.619Z,101929.64
2018-06-18T11:11:13.189Z,101931.91
2018-06-18T11:13:41.697Z,101938.63
2018-06-18T11:16:10.277Z,101939.10
2018-06-18T11:18:43.874Z,101945.34
2018-06-18T11:21:17.678Z,101959.66
2018-06-18T11:23:51.500Z,101967.67
2018-06-18T11:26:25.424Z,101969.37
2018-06-18T11:28:54.228Z,101962.23
2018-06-18T11:31:22.728Z,101976.93
2018-06-18T11:33:51.231Z,101972.48
2018-06-18T11:36:19.784Z,101977.86
2018-06-18T11:38:48.430Z,101975.69
2018-06-18T11:41:24.803Z,101965.89
2018-06-18T11:43:53.312Z,101963.66
2018-06-18T11:46:21.988Z,101967.67
2018-06-18T11:48:50.536Z,101960.56
2018-06-18T11:51:18.950Z,101961.87
2018-06-18T11:53:47.718Z,101953.38
2018-06-18T11:56:16.237Z,101953.80
2018-06-18T11:58:50.184Z,101945.34
2018-06-18T12:01:23.905Z,101961.42
2018-06-18T12:03:57.659Z,101958.33
2018-06-18T12:06:35.040Z,101961.42
2018-06-18T12:09:08.710Z,101966.78
2018-06-18T12:11:37.262Z,101962.76
2018-06-18T12:14:13.049Z,101966.73
2018-06-18T12:16:41.632Z,101973.39
2018-06-18T12:19:10.101Z,101973.34
2018-06-18T12:21:38.572Z,101983.03
2018-06-18T12:24:07.961Z,101979.72
2018-06-18T12:26:36.690Z,101989.41
2018-06-18T12:29:05.388Z,101987.16
2018-06-18T12:31:33.802Z,101995.15
2018-06-18T12:34:02.418Z,101986.23
2018-06-18T12:36:30.939Z,101982.36
2018-06-18T12:38:59.488Z,101980.33
2018-06-18T12:41:41.481Z,101979.94
2018-06-18T12:44:09.965Z,101976.01
2018-06-18T12:46:43.924Z,101981.81
2018-06-18T12:49:17.618Z,101976.94
2018-06-18T12:52:04.590Z,101979.64
2018-06-18T12:54:38.367Z,101975.23
2018-06-18T12:57:08.249Z,101971.23
2018-06-18T12:59:36.793Z,101959.20
2018-06-18T13:02:23.218Z,101961.45
2018-06-18T13:04:56.310Z,101951.17
2018-06-18T13:07:25.809Z,101945.35
2018-06-18T13:09:54.493Z,101947.03
2018-06-18T13:12:22.944Z,101939.70
2018-06-18T13:14:51.444Z,101930.72
2018-06-18T13:17:19.934Z,101941.47
2018-06-18T13:19:48.404Z,101933.89
2018-06-18T13:22:16.900Z,101939.67
2018-06-18T13:24:45.389Z,101938.77
2018-06-18T13:27:13.863Z,101945.48
2018-06-18T13:29:42.345Z,101946.44
2018-06-18T13:32:10.829Z,101946.13
2018-06-18T13:34:39.305Z,101946.20
2018-06-18T13:37:12.955Z,101945.27
2018-06-18T13:39:46.830Z,101938.84
2018-06-18T13:43:20.665Z,101943.20
2018-06-18T13:46:55.474Z,101945.39
2018-06-18T13:49:28.089Z,101936.62
2018-06-18T13:51:56.773Z,101929.64
2018-06-18T13:54:40.685Z,101937.31
2018-06-18T13:57:09.256Z,101940.02
2018-06-18T13:59:37.830Z,101945.84
2018-06-18T14:02:06.360Z,101936.92
2018-06-18T14:04:34.904Z,101929.77
2018-06-18T14:07:03.478Z,101930.58
2018-06-18T14:09:31.983Z,101929.57
2018-06-18T14:12:00.543Z,101928.16
2018-06-18T14:14:29.217Z,101928.63
2018-06-18T14:16:57.728Z,101922.02
2018-06-18T14:19:31.542Z,101920.75
2018-06-18T14:22:00.129Z,101930.18
2018-06-18T14:24:28.597Z,101930.62
2018-06-18T14:26:57.080Z,101938.23
2018-06-18T14:29:30.862Z,101935.55
2018-06-18T14:31:59.923Z,101937.77
2018-06-18T14:34:33.671Z,101923.35
2018-06-18T14:37:07.362Z,101924.97
2018-06-18T14:39:41.046Z,101928.94
2018-06-18T14:42:09.952Z,101931.15
2018-06-18T14:44:39.077Z,101925.36
2018-06-18T14:47:07.577Z,101922.25
2018-06-18T14:49:36.047Z,101916.53
2018-06-18T15:12:14.505Z,101906.77
2018-06-18T15:14:44.212Z,101905.50
2018-06-18T15:17:12.674Z,101900.25
2018-06-18T15:19:41.201Z,101898.13
2018-06-18T15:22:09.820Z,101896.00
2018-06-18T15:24:51.449Z,101894.72
2018-06-18T15:47:27.614Z,101871.13
2018-06-18T15:49:56.173Z,101863.86
2018-06-18T15:52:24.708Z,101856.23
2018-06-18T15:54:53.281Z,101859.84
2018-06-18T15:57:21.766Z,101872.08
2018-06-18T16:20:01.033Z,101884.41
2018-06-18T16:22:29.505Z,101884.99
2018-06-18T16:24:58.044Z,101885.48
2018-06-18T16:27:26.791Z,101880.91
2018-06-18T16:29:55.392Z,101880.24
2018-06-18T16:32:23.869Z,101879.48
2018-06-18T16:34:53.636Z,101889.97
2018-06-18T16:37:22.061Z,101881.11
2018-06-18T16:39:50.755Z,101884.19
2018-06-18T17:12:30.798Z,101866.27
2018-06-18T17:15:00.399Z,101871.26
2018-06-18T17:17:28.871Z,101872.05
2018-06-18T17:19:57.382Z,101870.32
2018-06-18T17:22:25.841Z,101873.72
2018-06-18T17:24:54.400Z,101880.65
2018-06-18T17:27:23.176Z,101883.83
2018-06-18T17:29:51.671Z,101886.50
2018-06-18T17:32:20.272Z,101888.78
2018-06-18T17:34:48.757Z,101903.06
2018-06-18T17:37:17.262Z,101909.77
2018-06-18T17:39:46.270Z,101910.28
2018-06-18T18:12:40.157Z,101925.33
2018-06-18T18:15:08.794Z,101926.67
2018-06-18T18:44:34.385Z,101944.88
2018-06-18T18:47:02.861Z,101942.64
2018-06-18T18:49:31.380Z,101939.08
2018-06-18T18:52:01.091Z,101935.06
2018-06-18T18:55:40.564Z,101933.27
2018-06-18T18:58:21.404Z,101933.70
2018-06-18T19:00:50.555Z,101939.05
2018-06-18T19:03:21.148Z,101939.50
2018-06-18T19:05:50.742Z,101929.24
2018-06-18T19:08:24.460Z,101933.69
2018-06-18T19:10:53.172Z,101934.99
2018-06-18T19:13:31.667Z,101939.86
2018-06-18T19:43:26.474Z,101953.84
2018-06-18T19:45:58.465Z,101952.88
2018-06-18T23:03:01.718Z,102047.78
2018-06-18T23:05:30.201Z,102048.28
2018-06-18T23:07:58.656Z,102049.61
2018-06-18T23:10:27.181Z,102059.24
2018-06-18T23:12:55.754Z,102055.14
2018-06-18T23:15:24.240Z,102048.03
2018-06-18T23:17:52.830Z,102045.78
2018-06-18T23:20:21.284Z,102049.70
2018-06-18T23:22:49.800Z,102049.23
2018-06-18T23:25:18.499Z,102043.89
2018-06-18T23:27:47.575Z,102044.80
2018-06-18T23:30:15.995Z,102049.70
2018-06-18T23:32:44.527Z,102046.55
2018-06-18T23:35:12.948Z,102041.30
2018-06-18T23:37:41.364Z,102044.36
2018-06-18T23:40:10.498Z,102047.41
2018-06-18T23:42:38.971Z,102044.30
2018-06-18T23:45:07.448Z,102049.11
2018-06-18T23:47:36.287Z,102044.66
2018-06-18T23:50:04.871Z,102039.78
